sensor_id;sensor_type;location;lat;lon;timestamp;P1;durP1;ratioP1;P2;durP2;ratioP2
36001;SDS011;22070;50.922;5.430;2023-08-06T00:00:21;3.20;;;1.40;;
36001;SDS011;22070;50.922;5.430;2023-08-06T00:02:48;5.97;;;2.05;;
36001;SDS011;22070;50.922;5.430;2023-08-06T00:05:14;3.00;;;1.40;;
36001;SDS011;22070;50.922;5.430;2023-08-06T00:07:43;5.25;;;1.33;;
36001;SDS011;22070;50.922;5.430;2023-08-06T00:12:35;2.57;;;1.20;;
36001;SDS011;22070;50.922;5.430;2023-08-06T00:15:01;2.93;;;1.27;;
36001;SDS011;22070;50.922;5.430;2023-08-06T00:17:26;2.13;;;1.40;;
36001;SDS011;22070;50.922;5.430;2023-08-06T00:19:52;3.13;;;1.23;;
36001;SDS011;22070;50.922;5.430;2023-08-06T00:22:18;5.63;;;1.40;;
36001;SDS011;22070;50.922;5.430;2023-08-06T00:24:43;5.97;;;1.10;;
36001;SDS011;22070;50.922;5.430;2023-08-06T00:27:09;2.70;;;1.13;;
36001;SDS011;22070;50.922;5.430;2023-08-06T00:29:35;3.23;;;1.00;;
36001;SDS011;22070;50.922;5.430;2023-08-06T00:32:00;7.67;;;1.20;;
36001;SDS011;22070;50.922;5.430;2023-08-06T00:34:26;3.83;;;1.00;;
36001;SDS011;22070;50.922;5.430;2023-08-06T00:36:52;4.40;;;1.10;;
36001;SDS011;22070;50.922;5.430;2023-08-06T00:39:18;6.30;;;1.30;;
36001;SDS011;22070;50.922;5.430;2023-08-06T00:41:44;5.87;;;1.07;;
36001;SDS011;22070;50.922;5.430;2023-08-06T00:44:10;8.13;;;1.47;;
36001;SDS011;22070;50.922;5.430;2023-08-06T00:46:35;2.83;;;1.20;;
36001;SDS011;22070;50.922;5.430;2023-08-06T00:49:01;5.90;;;1.10;;
36001;SDS011;22070;50.922;5.430;2023-08-06T00:51:27;4.87;;;1.13;;
36001;SDS011;22070;50.922;5.430;2023-08-06T00:53:53;4.03;;;1.30;;
36001;SDS011;22070;50.922;5.430;2023-08-06T00:56:19;6.00;;;1.30;;
36001;SDS011;22070;50.922;5.430;2023-08-06T00:58:45;6.13;;;1.20;;
36001;SDS011;22070;50.922;5.430;2023-08-06T01:01:12;1.52;;;1.20;;
36001;SDS011;22070;50.922;5.430;2023-08-06T01:03:37;7.53;;;1.20;;
36001;SDS011;22070;50.922;5.430;2023-08-06T01:06:03;2.13;;;0.90;;
36001;SDS011;22070;50.922;5.430;2023-08-06T01:13:42;3.88;;;1.50;;
36001;SDS011;22070;50.922;5.430;2023-08-06T01:16:11;5.78;;;1.10;;
36001;SDS011;22070;50.922;5.430;2023-08-06T01:18:42;4.05;;;1.13;;
36001;SDS011;22070;50.922;5.430;2023-08-06T01:21:11;4.00;;;1.40;;
36001;SDS011;22070;50.922;5.430;2023-08-06T01:23:40;8.27;;;1.15;;
36001;SDS011;22070;50.922;5.430;2023-08-06T01:31:17;3.97;;;1.20;;
36001;SDS011;22070;50.922;5.430;2023-08-06T01:33:46;7.00;;;1.20;;
36001;SDS011;22070;50.922;5.430;2023-08-06T01:36:17;3.33;;;1.00;;
36001;SDS011;22070;50.922;5.430;2023-08-06T01:38:45;5.85;;;1.40;;
36001;SDS011;22070;50.922;5.430;2023-08-06T01:41:11;1.67;;;1.07;;
36001;SDS011;22070;50.922;5.430;2023-08-06T01:43:36;6.40;;;1.13;;
36001;SDS011;22070;50.922;5.430;2023-08-06T01:46:02;4.23;;;1.20;;
36001;SDS011;22070;50.922;5.430;2023-08-06T01:48:28;4.60;;;1.13;;
36001;SDS011;22070;50.922;5.430;2023-08-06T01:50:54;2.90;;;1.10;;
36001;SDS011;22070;50.922;5.430;2023-08-06T01:53:19;2.70;;;1.20;;
36001;SDS011;22070;50.922;5.430;2023-08-06T01:55:48;2.13;;;1.10;;
36001;SDS011;22070;50.922;5.430;2023-08-06T01:58:14;2.25;;;1.02;;
36001;SDS011;22070;50.922;5.430;2023-08-06T02:00:40;2.87;;;1.00;;
36001;SDS011;22070;50.922;5.430;2023-08-06T02:03:06;5.73;;;1.30;;
36001;SDS011;22070;50.922;5.430;2023-08-06T02:05:31;4.67;;;1.13;;
36001;SDS011;22070;50.922;5.430;2023-08-06T02:07:57;6.23;;;1.13;;
36001;SDS011;22070;50.922;5.430;2023-08-06T02:10:23;1.73;;;0.70;;
36001;SDS011;22070;50.922;5.430;2023-08-06T02:12:49;3.53;;;1.20;;
36001;SDS011;22070;50.922;5.430;2023-08-06T02:15:14;3.53;;;1.23;;
36001;SDS011;22070;50.922;5.430;2023-08-06T02:17:40;7.57;;;1.03;;
36001;SDS011;22070;50.922;5.430;2023-08-06T02:20:06;1.17;;;0.80;;
36001;SDS011;22070;50.922;5.430;2023-08-06T02:22:32;4.18;;;0.82;;
36001;SDS011;22070;50.922;5.430;2023-08-06T02:24:58;6.03;;;1.40;;
36001;SDS011;22070;50.922;5.430;2023-08-06T02:27:24;1.90;;;1.10;;
36001;SDS011;22070;50.922;5.430;2023-08-06T02:29:49;3.40;;;0.90;;
36001;SDS011;22070;50.922;5.430;2023-08-06T02:32:15;2.23;;;0.80;;
36001;SDS011;22070;50.922;5.430;2023-08-06T02:34:41;3.93;;;1.00;;
36001;SDS011;22070;50.922;5.430;2023-08-06T02:37:07;5.17;;;1.03;;
36001;SDS011;22070;50.922;5.430;2023-08-06T02:39:33;1.50;;;0.70;;
36001;SDS011;22070;50.922;5.430;2023-08-06T02:41:59;5.15;;;1.00;;
36001;SDS011;22070;50.922;5.430;2023-08-06T02:44:28;2.80;;;0.80;;
36001;SDS011;22070;50.922;5.430;2023-08-06T02:46:53;3.25;;;0.80;;
36001;SDS011;22070;50.922;5.430;2023-08-06T02:49:19;4.17;;;0.80;;
36001;SDS011;22070;50.922;5.430;2023-08-06T02:51:45;6.67;;;1.10;;
36001;SDS011;22070;50.922;5.430;2023-08-06T02:54:10;1.87;;;0.90;;
36001;SDS011;22070;50.922;5.430;2023-08-06T02:56:36;1.67;;;0.90;;
36001;SDS011;22070;50.922;5.430;2023-08-06T02:59:02;1.77;;;0.57;;
36001;SDS011;22070;50.922;5.430;2023-08-06T03:01:27;2.00;;;1.00;;
36001;SDS011;22070;50.922;5.430;2023-08-06T03:03:53;3.50;;;0.83;;
36001;SDS011;22070;50.922;5.430;2023-08-06T03:06:19;2.00;;;0.80;;
36001;SDS011;22070;50.922;5.430;2023-08-06T03:08:45;3.23;;;1.17;;
36001;SDS011;22070;50.922;5.430;2023-08-06T03:11:10;1.53;;;0.63;;
36001;SDS011;22070;50.922;5.430;2023-08-06T03:13:36;2.03;;;1.00;;
36001;SDS011;22070;50.922;5.430;2023-08-06T03:16:01;2.90;;;1.27;;
36001;SDS011;22070;50.922;5.430;2023-08-06T03:18:27;4.73;;;1.43;;
36001;SDS011;22070;50.922;5.430;2023-08-06T03:20:53;6.13;;;1.30;;
36001;SDS011;22070;50.922;5.430;2023-08-06T03:23:19;2.57;;;1.00;;
36001;SDS011;22070;50.922;5.430;2023-08-06T03:25:45;3.70;;;1.20;;
36001;SDS011;22070;50.922;5.430;2023-08-06T03:28:11;2.73;;;1.10;;
36001;SDS011;22070;50.922;5.430;2023-08-06T03:30:37;3.33;;;1.20;;
36001;SDS011;22070;50.922;5.430;2023-08-06T03:33:03;4.75;;;2.08;;
36001;SDS011;22070;50.922;5.430;2023-08-06T03:35:29;2.60;;;1.20;;
36001;SDS011;22070;50.922;5.430;2023-08-06T03:37:54;2.27;;;1.30;;
36001;SDS011;22070;50.922;5.430;2023-08-06T03:40:21;2.72;;;1.70;;
36001;SDS011;22070;50.922;5.430;2023-08-06T03:42:46;3.53;;;1.70;;
36001;SDS011;22070;50.922;5.430;2023-08-06T03:45:12;3.77;;;1.70;;
36001;SDS011;22070;50.922;5.430;2023-08-06T03:47:37;5.20;;;1.80;;
36001;SDS011;22070;50.922;5.430;2023-08-06T03:50:03;5.60;;;2.10;;
36001;SDS011;22070;50.922;5.430;2023-08-06T03:52:29;3.72;;;2.30;;
36001;SDS011;22070;50.922;5.430;2023-08-06T03:54:55;4.67;;;2.60;;
36001;SDS011;22070;50.922;5.430;2023-08-06T03:57:20;9.07;;;2.83;;
36001;SDS011;22070;50.922;5.430;2023-08-06T03:59:46;3.20;;;2.90;;
36001;SDS011;22070;50.922;5.430;2023-08-06T04:02:12;3.40;;;2.37;;
36001;SDS011;22070;50.922;5.430;2023-08-06T04:04:37;5.43;;;3.40;;
36001;SDS011;22070;50.922;5.430;2023-08-06T04:07:03;8.93;;;3.73;;
36001;SDS011;22070;50.922;5.430;2023-08-06T04:09:29;6.40;;;3.77;;
36001;SDS011;22070;50.922;5.430;2023-08-06T04:11:54;5.00;;;3.63;;
36001;SDS011;22070;50.922;5.430;2023-08-06T04:14:21;6.47;;;3.60;;
36001;SDS011;22070;50.922;5.430;2023-08-06T04:16:46;8.77;;;4.43;;
36001;SDS011;22070;50.922;5.430;2023-08-06T04:19:12;7.73;;;4.60;;
36001;SDS011;22070;50.922;5.430;2023-08-06T04:21:38;4.87;;;4.30;;
36001;SDS011;22070;50.922;5.430;2023-08-06T04:24:03;7.40;;;4.70;;
36001;SDS011;22070;50.922;5.430;2023-08-06T04:26:29;7.43;;;3.17;;
36001;SDS011;22070;50.922;5.430;2023-08-06T04:28:55;17.40;;;4.97;;
36001;SDS011;22070;50.922;5.430;2023-08-06T04:31:21;8.83;;;4.90;;
36001;SDS011;22070;50.922;5.430;2023-08-06T04:33:47;11.85;;;4.50;;
36001;SDS011;22070;50.922;5.430;2023-08-06T04:36:12;7.87;;;4.97;;
36001;SDS011;22070;50.922;5.430;2023-08-06T04:38:38;7.10;;;4.70;;
36001;SDS011;22070;50.922;5.430;2023-08-06T04:41:06;9.93;;;4.90;;
36001;SDS011;22070;50.922;5.430;2023-08-06T04:43:31;7.73;;;5.40;;
36001;SDS011;22070;50.922;5.430;2023-08-06T04:45:57;8.53;;;5.03;;
36001;SDS011;22070;50.922;5.430;2023-08-06T04:48:23;10.73;;;4.87;;
36001;SDS011;22070;50.922;5.430;2023-08-06T04:50:49;7.57;;;4.97;;
36001;SDS011;22070;50.922;5.430;2023-08-06T04:53:15;9.20;;;4.32;;
36001;SDS011;22070;50.922;5.430;2023-08-06T04:55:41;13.50;;;5.00;;
36001;SDS011;22070;50.922;5.430;2023-08-06T04:58:08;6.63;;;4.93;;
36001;SDS011;22070;50.922;5.430;2023-08-06T05:00:35;13.00;;;5.00;;
36001;SDS011;22070;50.922;5.430;2023-08-06T05:03:01;10.17;;;4.83;;
36001;SDS011;22070;50.922;5.430;2023-08-06T05:05:27;7.67;;;4.90;;
36001;SDS011;22070;50.922;5.430;2023-08-06T05:07:53;8.50;;;5.35;;
36001;SDS011;22070;50.922;5.430;2023-08-06T05:12:45;6.70;;;4.70;;
36001;SDS011;22070;50.922;5.430;2023-08-06T05:15:10;8.33;;;3.63;;
36001;SDS011;22070;50.922;5.430;2023-08-06T05:17:36;9.17;;;5.07;;
36001;SDS011;22070;50.922;5.430;2023-08-06T05:20:02;11.03;;;4.70;;
36001;SDS011;22070;50.922;5.430;2023-08-06T05:22:28;11.85;;;4.75;;
36001;SDS011;22070;50.922;5.430;2023-08-06T05:24:54;9.17;;;4.30;;
36001;SDS011;22070;50.922;5.430;2023-08-06T05:27:19;6.47;;;4.20;;
36001;SDS011;22070;50.922;5.430;2023-08-06T05:29:45;5.77;;;4.33;;
36001;SDS011;22070;50.922;5.430;2023-08-06T05:32:11;5.03;;;4.40;;
36001;SDS011;22070;50.922;5.430;2023-08-06T05:34:36;8.53;;;4.00;;
36001;SDS011;22070;50.922;5.430;2023-08-06T05:37:02;4.87;;;3.60;;
36001;SDS011;22070;50.922;5.430;2023-08-06T05:39:28;6.50;;;3.55;;
36001;SDS011;22070;50.922;5.430;2023-08-06T05:41:54;5.17;;;3.70;;
36001;SDS011;22070;50.922;5.430;2023-08-06T05:44:20;6.53;;;3.43;;
36001;SDS011;22070;50.922;5.430;2023-08-06T05:46:46;6.72;;;3.40;;
36001;SDS011;22070;50.922;5.430;2023-08-06T05:49:12;5.13;;;2.97;;
36001;SDS011;22070;50.922;5.430;2023-08-06T05:51:39;3.95;;;2.95;;
36001;SDS011;22070;50.922;5.430;2023-08-06T05:54:04;4.17;;;3.17;;
36001;SDS011;22070;50.922;5.430;2023-08-06T05:56:30;1.57;;;1.37;;
36001;SDS011;22070;50.922;5.430;2023-08-06T05:58:56;4.47;;;1.60;;
36001;SDS011;22070;50.922;5.430;2023-08-06T06:01:21;2.37;;;1.30;;
36001;SDS011;22070;50.922;5.430;2023-08-06T06:03:48;3.70;;;1.25;;
36001;SDS011;22070;50.922;5.430;2023-08-06T06:06:13;1.23;;;1.07;;
36001;SDS011;22070;50.922;5.430;2023-08-06T06:08:39;1.80;;;1.20;;
36001;SDS011;22070;50.922;5.430;2023-08-06T06:11:05;0.00;;;0.00;;
36001;SDS011;22070;50.922;5.430;2023-08-06T06:13:30;0.00;;;0.00;;
36001;SDS011;22070;50.922;5.430;2023-08-06T06:15:56;0.00;;;0.00;;
36001;SDS011;22070;50.922;5.430;2023-08-06T06:18:22;0.00;;;0.00;;
36001;SDS011;22070;50.922;5.430;2023-08-06T06:20:48;0.00;;;0.00;;
36001;SDS011;22070;50.922;5.430;2023-08-06T06:23:13;0.00;;;0.00;;
36001;SDS011;22070;50.922;5.430;2023-08-06T06:25:43;0.00;;;0.00;;
36001;SDS011;22070;50.922;5.430;2023-08-06T06:28:11;0.00;;;0.00;;
36001;SDS011;22070;50.922;5.430;2023-08-06T06:30:37;0.00;;;0.00;;
36001;SDS011;22070;50.922;5.430;2023-08-06T06:33:03;0.00;;;0.00;;
36001;SDS011;22070;50.922;5.430;2023-08-06T06:35:28;0.00;;;0.00;;
36001;SDS011;22070;50.922;5.430;2023-08-06T06:37:54;0.00;;;0.00;;
36001;SDS011;22070;50.922;5.430;2023-08-06T06:40:20;0.00;;;0.00;;
36001;SDS011;22070;50.922;5.430;2023-08-06T06:42:45;0.00;;;0.00;;
36001;SDS011;22070;50.922;5.430;2023-08-06T06:45:11;0.00;;;0.00;;
36001;SDS011;22070;50.922;5.430;2023-08-06T06:47:37;0.00;;;0.00;;
36001;SDS011;22070;50.922;5.430;2023-08-06T06:50:02;0.00;;;0.00;;
36001;SDS011;22070;50.922;5.430;2023-08-06T06:52:29;0.00;;;0.00;;
36001;SDS011;22070;50.922;5.430;2023-08-06T06:54:54;0.00;;;0.00;;
36001;SDS011;22070;50.922;5.430;2023-08-06T06:57:20;0.00;;;0.00;;
36001;SDS011;22070;50.922;5.430;2023-08-06T06:59:46;0.00;;;0.00;;
36001;SDS011;22070;50.922;5.430;2023-08-06T07:02:11;0.00;;;0.00;;
36001;SDS011;22070;50.922;5.430;2023-08-06T07:04:37;0.00;;;0.00;;
36001;SDS011;22070;50.922;5.430;2023-08-06T07:07:03;0.00;;;0.00;;
36001;SDS011;22070;50.922;5.430;2023-08-06T07:09:28;0.30;;;0.30;;
36001;SDS011;22070;50.922;5.430;2023-08-06T07:11:54;0.00;;;0.00;;
36001;SDS011;22070;50.922;5.430;2023-08-06T07:14:20;0.10;;;0.10;;
36001;SDS011;22070;50.922;5.430;2023-08-06T07:16:45;0.00;;;0.00;;
36001;SDS011;22070;50.922;5.430;2023-08-06T07:19:11;0.00;;;0.00;;
36001;SDS011;22070;50.922;5.430;2023-08-06T07:21:37;0.10;;;0.10;;
36001;SDS011;22070;50.922;5.430;2023-08-06T07:24:02;0.00;;;0.00;;
36001;SDS011;22070;50.922;5.430;2023-08-06T07:26:28;0.00;;;0.00;;
36001;SDS011;22070;50.922;5.430;2023-08-06T07:28:54;0.00;;;0.00;;
36001;SDS011;22070;50.922;5.430;2023-08-06T07:31:19;0.00;;;0.00;;
36001;SDS011;22070;50.922;5.430;2023-08-06T07:33:45;0.00;;;0.00;;
36001;SDS011;22070;50.922;5.430;2023-08-06T07:36:11;0.00;;;0.00;;
36001;SDS011;22070;50.922;5.430;2023-08-06T07:38:37;0.00;;;0.00;;
36001;SDS011;22070;50.922;5.430;2023-08-06T07:41:03;0.00;;;0.00;;
36001;SDS011;22070;50.922;5.430;2023-08-06T07:43:29;0.00;;;0.00;;
36001;SDS011;22070;50.922;5.430;2023-08-06T07:45:58;0.00;;;0.00;;
36001;SDS011;22070;50.922;5.430;2023-08-06T07:48:25;0.00;;;0.00;;
36001;SDS011;22070;50.922;5.430;2023-08-06T07:50:54;0.00;;;0.00;;
36001;SDS011;22070;50.922;5.430;2023-08-06T07:53:21;0.00;;;0.00;;
36001;SDS011;22070;50.922;5.430;2023-08-06T07:55:49;0.00;;;0.00;;
36001;SDS011;22070;50.922;5.430;2023-08-06T07:58:18;0.00;;;0.00;;
36001;SDS011;22070;50.922;5.430;2023-08-06T08:00:44;0.00;;;0.00;;
36001;SDS011;22070;50.922;5.430;2023-08-06T08:03:14;0.65;;;0.43;;
36001;SDS011;22070;50.922;5.430;2023-08-06T08:05:40;0.10;;;0.10;;
36001;SDS011;22070;50.922;5.430;2023-08-06T08:08:07;0.28;;;0.28;;
36001;SDS011;22070;50.922;5.430;2023-08-06T08:10:33;0.00;;;0.00;;
36001;SDS011;22070;50.922;5.430;2023-08-06T08:13:00;0.00;;;0.00;;
36001;SDS011;22070;50.922;5.430;2023-08-06T08:15:27;0.10;;;0.10;;
36001;SDS011;22070;50.922;5.430;2023-08-06T08:17:57;1.35;;;0.32;;
36001;SDS011;22070;50.922;5.430;2023-08-06T08:20:23;0.00;;;0.00;;
36001;SDS011;22070;50.922;5.430;2023-08-06T08:22:48;0.15;;;0.15;;
36001;SDS011;22070;50.922;5.430;2023-08-06T08:25:15;0.00;;;0.00;;
36001;SDS011;22070;50.922;5.430;2023-08-06T08:27:41;0.32;;;0.32;;
36001;SDS011;22070;50.922;5.430;2023-08-06T08:30:07;0.00;;;0.00;;
36001;SDS011;22070;50.922;5.430;2023-08-06T08:32:33;0.00;;;0.00;;
36001;SDS011;22070;50.922;5.430;2023-08-06T08:34:58;0.00;;;0.00;;
36001;SDS011;22070;50.922;5.430;2023-08-06T08:37:24;0.20;;;0.20;;
36001;SDS011;22070;50.922;5.430;2023-08-06T08:39:49;0.03;;;0.03;;
36001;SDS011;22070;50.922;5.430;2023-08-06T08:42:15;0.00;;;0.00;;
36001;SDS011;22070;50.922;5.430;2023-08-06T08:44:42;0.00;;;0.00;;
36001;SDS011;22070;50.922;5.430;2023-08-06T08:47:08;0.03;;;0.03;;
36001;SDS011;22070;50.922;5.430;2023-08-06T08:52:00;0.13;;;0.13;;
36001;SDS011;22070;50.922;5.430;2023-08-06T08:54:27;0.00;;;0.00;;
36001;SDS011;22070;50.922;5.430;2023-08-06T08:56:56;0.00;;;0.00;;
36001;SDS011;22070;50.922;5.430;2023-08-06T08:59:22;0.00;;;0.00;;
36001;SDS011;22070;50.922;5.430;2023-08-06T09:01:48;0.03;;;0.03;;
36001;SDS011;22070;50.922;5.430;2023-08-06T09:04:18;0.00;;;0.00;;
36001;SDS011;22070;50.922;5.430;2023-08-06T09:06:46;0.00;;;0.00;;
36001;SDS011;22070;50.922;5.430;2023-08-06T09:09:18;0.13;;;0.13;;
36001;SDS011;22070;50.922;5.430;2023-08-06T09:12:03;0.60;;;0.10;;
36001;SDS011;22070;50.922;5.430;2023-08-06T09:14:36;0.00;;;0.00;;
36001;SDS011;22070;50.922;5.430;2023-08-06T09:17:01;0.00;;;0.00;;
36001;SDS011;22070;50.922;5.430;2023-08-06T09:19:29;0.22;;;0.22;;
36001;SDS011;22070;50.922;5.430;2023-08-06T09:21:55;0.00;;;0.00;;
36001;SDS011;22070;50.922;5.430;2023-08-06T09:24:21;0.20;;;0.20;;
36001;SDS011;22070;50.922;5.430;2023-08-06T09:26:47;0.00;;;0.00;;
36001;SDS011;22070;50.922;5.430;2023-08-06T09:29:13;1.52;;;0.45;;
36001;SDS011;22070;50.922;5.430;2023-08-06T09:31:42;0.00;;;0.00;;
36001;SDS011;22070;50.922;5.430;2023-08-06T09:34:11;0.00;;;0.00;;
36001;SDS011;22070;50.922;5.430;2023-08-06T09:37:02;0.15;;;0.15;;
36001;SDS011;22070;50.922;5.430;2023-08-06T09:39:29;0.00;;;0.00;;
36001;SDS011;22070;50.922;5.430;2023-08-06T09:41:56;0.00;;;0.00;;
36001;SDS011;22070;50.922;5.430;2023-08-06T09:44:23;0.00;;;0.00;;
36001;SDS011;22070;50.922;5.430;2023-08-06T09:46:51;0.00;;;0.00;;
36001;SDS011;22070;50.922;5.430;2023-08-06T09:49:18;1.98;;;0.60;;
36001;SDS011;22070;50.922;5.430;2023-08-06T09:51:47;0.00;;;0.00;;
36001;SDS011;22070;50.922;5.430;2023-08-06T09:54:17;0.00;;;0.00;;
36001;SDS011;22070;50.922;5.430;2023-08-06T09:56:45;0.00;;;0.00;;
36001;SDS011;22070;50.922;5.430;2023-08-06T09:59:11;0.67;;;0.67;;
36001;SDS011;22070;50.922;5.430;2023-08-06T10:01:39;0.00;;;0.00;;
36001;SDS011;22070;50.922;5.430;2023-08-06T10:04:05;0.00;;;0.00;;
36001;SDS011;22070;50.922;5.430;2023-08-06T10:06:36;0.00;;;0.00;;
36001;SDS011;22070;50.922;5.430;2023-08-06T10:09:03;0.00;;;0.00;;
36001;SDS011;22070;50.922;5.430;2023-08-06T10:11:29;0.00;;;0.00;;
36001;SDS011;22070;50.922;5.430;2023-08-06T10:16:43;0.00;;;0.00;;
36001;SDS011;22070;50.922;5.430;2023-08-06T10:19:10;0.10;;;0.10;;
36001;SDS011;22070;50.922;5.430;2023-08-06T10:21:40;0.00;;;0.00;;
36001;SDS011;22070;50.922;5.430;2023-08-06T10:24:09;0.32;;;0.32;;
36001;SDS011;22070;50.922;5.430;2023-08-06T10:26:39;0.00;;;0.00;;
36001;SDS011;22070;50.922;5.430;2023-08-06T10:29:47;0.00;;;0.00;;
36001;SDS011;22070;50.922;5.430;2023-08-06T10:32:00;0.10;;;0.10;;
36001;SDS011;22070;50.922;5.430;2023-08-06T10:34:46;0.00;;;0.00;;
36001;SDS011;22070;50.922;5.430;2023-08-06T10:37:18;0.10;;;0.10;;
36001;SDS011;22070;50.922;5.430;2023-08-06T10:39:48;0.00;;;0.00;;
36001;SDS011;22070;50.922;5.430;2023-08-06T10:42:35;0.00;;;0.00;;
36001;SDS011;22070;50.922;5.430;2023-08-06T10:45:14;0.10;;;0.10;;
36001;SDS011;22070;50.922;5.430;2023-08-06T10:47:44;0.00;;;0.00;;
36001;SDS011;22070;50.922;5.430;2023-08-06T10:50:14;0.00;;;0.00;;
36001;SDS011;22070;50.922;5.430;2023-08-06T10:52:42;0.00;;;0.00;;
36001;SDS011;22070;50.922;5.430;2023-08-06T10:55:11;0.20;;;0.10;;
36001;SDS011;22070;50.922;5.430;2023-08-06T10:57:38;0.00;;;0.00;;
36001;SDS011;22070;50.922;5.430;2023-08-06T11:00:04;6.50;;;0.50;;
36001;SDS011;22070;50.922;5.430;2023-08-06T11:02:35;0.00;;;0.00;;
36001;SDS011;22070;50.922;5.430;2023-08-06T11:05:07;0.00;;;0.00;;
36001;SDS011;22070;50.922;5.430;2023-08-06T11:07:37;0.10;;;0.10;;
36001;SDS011;22070;50.922;5.430;2023-08-06T11:10:06;0.00;;;0.00;;
36001;SDS011;22070;50.922;5.430;2023-08-06T11:12:33;0.00;;;0.00;;
36001;SDS011;22070;50.922;5.430;2023-08-06T11:15:00;0.20;;;0.20;;
36001;SDS011;22070;50.922;5.430;2023-08-06T11:17:28;0.65;;;0.57;;
36001;SDS011;22070;50.922;5.430;2023-08-06T11:19:54;0.03;;;0.03;;
36001;SDS011;22070;50.922;5.430;2023-08-06T11:22:20;0.00;;;0.00;;
36001;SDS011;22070;50.922;5.430;2023-08-06T11:24:47;0.00;;;0.00;;
36001;SDS011;22070;50.922;5.430;2023-08-06T11:27:15;0.00;;;0.00;;
36001;SDS011;22070;50.922;5.430;2023-08-06T11:29:41;0.00;;;0.00;;
36001;SDS011;22070;50.922;5.430;2023-08-06T11:32:08;0.00;;;0.00;;
36001;SDS011;22070;50.922;5.430;2023-08-06T11:34:35;0.00;;;0.00;;
36001;SDS011;22070;50.922;5.430;2023-08-06T11:37:04;0.00;;;0.00;;
36001;SDS011;22070;50.922;5.430;2023-08-06T11:39:34;0.00;;;0.00;;
36001;SDS011;22070;50.922;5.430;2023-08-06T11:42:00;0.00;;;0.00;;
36001;SDS011;22070;50.922;5.430;2023-08-06T11:44:31;0.00;;;0.00;;
36001;SDS011;22070;50.922;5.430;2023-08-06T11:46:59;0.00;;;0.00;;
36001;SDS011;22070;50.922;5.430;2023-08-06T11:52:17;0.00;;;0.00;;
36001;SDS011;22070;50.922;5.430;2023-08-06T11:54:44;0.00;;;0.00;;
36001;SDS011;22070;50.922;5.430;2023-08-06T11:57:11;0.00;;;0.00;;
36001;SDS011;22070;50.922;5.430;2023-08-06T11:59:37;0.00;;;0.00;;
36001;SDS011;22070;50.922;5.430;2023-08-06T12:02:04;0.00;;;0.00;;
36001;SDS011;22070;50.922;5.430;2023-08-06T12:04:50;0.52;;;0.43;;
36001;SDS011;22070;50.922;5.430;2023-08-06T12:07:28;0.00;;;0.00;;
36001;SDS011;22070;50.922;5.430;2023-08-06T12:09:58;0.00;;;0.00;;
36001;SDS011;22070;50.922;5.430;2023-08-06T12:12:24;0.00;;;0.00;;
36001;SDS011;22070;50.922;5.430;2023-08-06T12:14:50;0.00;;;0.00;;
36001;SDS011;22070;50.922;5.430;2023-08-06T12:17:16;0.00;;;0.00;;
36001;SDS011;22070;50.922;5.430;2023-08-06T12:19:44;0.00;;;0.00;;
36001;SDS011;22070;50.922;5.430;2023-08-06T12:22:11;0.00;;;0.00;;
36001;SDS011;22070;50.922;5.430;2023-08-06T12:24:38;0.00;;;0.00;;
36001;SDS011;22070;50.922;5.430;2023-08-06T12:27:05;0.00;;;0.00;;
36001;SDS011;22070;50.922;5.430;2023-08-06T12:29:31;0.00;;;0.00;;
36001;SDS011;22070;50.922;5.430;2023-08-06T12:31:56;0.00;;;0.00;;
36001;SDS011;22070;50.922;5.430;2023-08-06T12:34:22;0.00;;;0.00;;
36001;SDS011;22070;50.922;5.430;2023-08-06T12:36:48;0.00;;;0.00;;
36001;SDS011;22070;50.922;5.430;2023-08-06T12:39:14;0.00;;;0.00;;
36001;SDS011;22070;50.922;5.430;2023-08-06T12:41:40;0.00;;;0.00;;
36001;SDS011;22070;50.922;5.430;2023-08-06T12:44:08;0.00;;;0.00;;
36001;SDS011;22070;50.922;5.430;2023-08-06T12:46:34;1.90;;;0.70;;
36001;SDS011;22070;50.922;5.430;2023-08-06T12:48:59;0.00;;;0.00;;
36001;SDS011;22070;50.922;5.430;2023-08-06T12:51:25;0.00;;;0.00;;
36001;SDS011;22070;50.922;5.430;2023-08-06T12:53:51;0.00;;;0.00;;
36001;SDS011;22070;50.922;5.430;2023-08-06T12:56:16;0.00;;;0.00;;
36001;SDS011;22070;50.922;5.430;2023-08-06T12:58:42;0.60;;;0.35;;
36001;SDS011;22070;50.922;5.430;2023-08-06T13:01:08;0.00;;;0.00;;
36001;SDS011;22070;50.922;5.430;2023-08-06T13:03:33;0.23;;;0.10;;
36001;SDS011;22070;50.922;5.430;2023-08-06T13:05:59;0.00;;;0.00;;
36001;SDS011;22070;50.922;5.430;2023-08-06T13:08:25;0.03;;;0.03;;
36001;SDS011;22070;50.922;5.430;2023-08-06T13:10:50;0.00;;;0.00;;
36001;SDS011;22070;50.922;5.430;2023-08-06T13:13:16;0.00;;;0.00;;
36001;SDS011;22070;50.922;5.430;2023-08-06T13:15:42;0.00;;;0.00;;
36001;SDS011;22070;50.922;5.430;2023-08-06T13:18:07;0.00;;;0.00;;
36001;SDS011;22070;50.922;5.430;2023-08-06T13:20:33;0.00;;;0.00;;
36001;SDS011;22070;50.922;5.430;2023-08-06T13:22:59;0.00;;;0.00;;
36001;SDS011;22070;50.922;5.430;2023-08-06T13:25:26;1.10;;;0.47;;
36001;SDS011;22070;50.922;5.430;2023-08-06T13:27:53;0.00;;;0.00;;
36001;SDS011;22070;50.922;5.430;2023-08-06T13:30:19;0.00;;;0.00;;
36001;SDS011;22070;50.922;5.430;2023-08-06T13:32:45;0.00;;;0.00;;
36001;SDS011;22070;50.922;5.430;2023-08-06T13:35:11;0.07;;;0.07;;
36001;SDS011;22070;50.922;5.430;2023-08-06T13:37:37;0.00;;;0.00;;
36001;SDS011;22070;50.922;5.430;2023-08-06T13:40:03;0.00;;;0.00;;
36001;SDS011;22070;50.922;5.430;2023-08-06T13:42:29;0.57;;;0.20;;
36001;SDS011;22070;50.922;5.430;2023-08-06T13:44:54;0.10;;;0.10;;
36001;SDS011;22070;50.922;5.430;2023-08-06T13:47:27;0.00;;;0.00;;
36001;SDS011;22070;50.922;5.430;2023-08-06T13:49:53;0.00;;;0.00;;
36001;SDS011;22070;50.922;5.430;2023-08-06T13:52:18;0.03;;;0.03;;
36001;SDS011;22070;50.922;5.430;2023-08-06T13:54:44;0.00;;;0.00;;
36001;SDS011;22070;50.922;5.430;2023-08-06T13:57:10;0.10;;;0.10;;
36001;SDS011;22070;50.922;5.430;2023-08-06T13:59:35;0.00;;;0.00;;
36001;SDS011;22070;50.922;5.430;2023-08-06T14:02:01;0.00;;;0.00;;
36001;SDS011;22070;50.922;5.430;2023-08-06T14:04:27;0.00;;;0.00;;
36001;SDS011;22070;50.922;5.430;2023-08-06T14:06:52;0.00;;;0.00;;
36001;SDS011;22070;50.922;5.430;2023-08-06T14:09:18;0.10;;;0.10;;
36001;SDS011;22070;50.922;5.430;2023-08-06T14:11:44;0.00;;;0.00;;
36001;SDS011;22070;50.922;5.430;2023-08-06T14:14:10;0.00;;;0.00;;
36001;SDS011;22070;50.922;5.430;2023-08-06T14:16:36;0.00;;;0.00;;
36001;SDS011;22070;50.922;5.430;2023-08-06T14:19:02;0.00;;;0.00;;
36001;SDS011;22070;50.922;5.430;2023-08-06T14:21:28;0.15;;;0.10;;
36001;SDS011;22070;50.922;5.430;2023-08-06T14:23:53;0.00;;;0.00;;
36001;SDS011;22070;50.922;5.430;2023-08-06T14:26:19;0.00;;;0.00;;
36001;SDS011;22070;50.922;5.430;2023-08-06T14:28:45;1.17;;;0.33;;
36001;SDS011;22070;50.922;5.430;2023-08-06T14:31:11;0.00;;;0.00;;
36001;SDS011;22070;50.922;5.430;2023-08-06T14:33:36;4.77;;;1.53;;
36001;SDS011;22070;50.922;5.430;2023-08-06T14:36:02;0.00;;;0.00;;
36001;SDS011;22070;50.922;5.430;2023-08-06T14:38:28;0.00;;;0.00;;
36001;SDS011;22070;50.922;5.430;2023-08-06T14:40:53;0.10;;;0.10;;
36001;SDS011;22070;50.922;5.430;2023-08-06T14:43:19;0.00;;;0.00;;
36001;SDS011;22070;50.922;5.430;2023-08-06T14:45:45;0.00;;;0.00;;
36001;SDS011;22070;50.922;5.430;2023-08-06T14:48:11;0.00;;;0.00;;
36001;SDS011;22070;50.922;5.430;2023-08-06T14:50:36;0.00;;;0.00;;
36001;SDS011;22070;50.922;5.430;2023-08-06T14:53:04;0.00;;;0.00;;
36001;SDS011;22070;50.922;5.430;2023-08-06T14:55:30;0.00;;;0.00;;
36001;SDS011;22070;50.922;5.430;2023-08-06T14:57:56;0.00;;;0.00;;
36001;SDS011;22070;50.922;5.430;2023-08-06T15:00:22;0.00;;;0.00;;
36001;SDS011;22070;50.922;5.430;2023-08-06T15:02:47;0.00;;;0.00;;
36001;SDS011;22070;50.922;5.430;2023-08-06T15:05:13;0.00;;;0.00;;
36001;SDS011;22070;50.922;5.430;2023-08-06T15:07:39;0.00;;;0.00;;